Terrytown, Louisiana
Current Conditions -  °F | °C
As of 7:55 PM on Sunday 25 Jan 2015 (Local Time) from KNBG Reporting Station
Clear Clear  
Wind Chill: 55°   Ceiling: Unl
Heat Index: 55°   Visibility: 10mi
Dew Point: 43°   Wind: 8mph
Humidity: 64%   Direction: 250°WSW
Pressure: 29.92"   Gusts: NA
Location:  29.9°N, 90.03°W
Report Text: KNBG 260155Z AUTO 25007KT 10SM CLR 13/06 A2992 RMK AO2 SLP132 T01280061 $
Loading
Personal Weather Stations






























Interactive Weather Map New forecast layout! Learn more

10-Day Weather Forecast

Advertisements
Track Severe Weather on mobile